Clyattville, Georgia
Current Conditions -  °F | °C
As of 7:53 AM on Monday 22 Dec 2014 (Local Time) from KVLD Reporting Station
Moderate Fog Moderate Fog  
Wind Chill: 52°   Ceiling: 200
Heat Index: 52°   Visibility: 0.25mi
Dew Point: 52°   Wind: 6mph
Humidity: 100%   Direction: 50°NE
Pressure: 30"   Gusts: NA
Location:  30.7579°N, 83.3062°W
Report Text: KVLD 221253Z 05005KT 1/4SM FG VV002 11/11 A3000 RMK AO2 SLP166 T01110111
Loading
Personal Weather Stations






























Interactive Weather Map New forecast layout! Learn more

10-Day Weather Forecast

Advertisements
Track Severe Weather on mobile